sensor_id;sensor_type;location;lat;lon;timestamp;P1;durP1;ratioP1;P2;durP2;ratioP2
41761;SDS011;27441;50.860;0.258;2023-02-13T00:00:20;0.00;;;0.00;;
41761;SDS011;27441;50.860;0.258;2023-02-13T00:02:47;0.00;;;0.00;;
41761;SDS011;27441;50.860;0.258;2023-02-13T00:05:13;0.00;;;0.00;;
41761;SDS011;27441;50.860;0.258;2023-02-13T00:07:39;0.00;;;0.00;;
41761;SDS011;27441;50.860;0.258;2023-02-13T00:10:05;0.00;;;0.00;;
41761;SDS011;27441;50.860;0.258;2023-02-13T00:12:31;0.00;;;0.00;;
41761;SDS011;27441;50.860;0.258;2023-02-13T00:14:57;0.00;;;0.00;;
41761;SDS011;27441;50.860;0.258;2023-02-13T00:17:24;0.00;;;0.00;;
41761;SDS011;27441;50.860;0.258;2023-02-13T00:19:50;0.00;;;0.00;;
41761;SDS011;27441;50.860;0.258;2023-02-13T00:22:16;0.00;;;0.00;;
41761;SDS011;27441;50.860;0.258;2023-02-13T00:24:43;0.00;;;0.00;;
41761;SDS011;27441;50.860;0.258;2023-02-13T00:27:09;0.00;;;0.00;;
41761;SDS011;27441;50.860;0.258;2023-02-13T00:29:35;0.00;;;0.00;;
41761;SDS011;27441;50.860;0.258;2023-02-13T00:32:01;0.00;;;0.00;;
41761;SDS011;27441;50.860;0.258;2023-02-13T00:34:27;0.00;;;0.00;;
41761;SDS011;27441;50.860;0.258;2023-02-13T00:36:53;0.00;;;0.00;;
41761;SDS011;27441;50.860;0.258;2023-02-13T00:39:19;0.00;;;0.00;;
41761;SDS011;27441;50.860;0.258;2023-02-13T00:41:45;0.00;;;0.00;;
41761;SDS011;27441;50.860;0.258;2023-02-13T00:44:12;0.00;;;0.00;;
41761;SDS011;27441;50.860;0.258;2023-02-13T00:46:38;0.00;;;0.00;;
41761;SDS011;27441;50.860;0.258;2023-02-13T00:49:04;0.00;;;0.00;;
41761;SDS011;27441;50.860;0.258;2023-02-13T00:51:30;0.00;;;0.00;;
41761;SDS011;27441;50.860;0.258;2023-02-13T00:53:56;0.00;;;0.00;;
41761;SDS011;27441;50.860;0.258;2023-02-13T00:56:22;0.00;;;0.00;;
41761;SDS011;27441;50.860;0.258;2023-02-13T00:58:48;0.00;;;0.00;;
41761;SDS011;27441;50.860;0.258;2023-02-13T01:01:15;0.00;;;0.00;;
41761;SDS011;27441;50.860;0.258;2023-02-13T01:03:41;0.00;;;0.00;;
41761;SDS011;27441;50.860;0.258;2023-02-13T01:06:07;0.00;;;0.00;;
41761;SDS011;27441;50.860;0.258;2023-02-13T01:08:33;0.00;;;0.00;;
41761;SDS011;27441;50.860;0.258;2023-02-13T01:10:59;0.00;;;0.00;;
41761;SDS011;27441;50.860;0.258;2023-02-13T01:13:26;0.00;;;0.00;;
41761;SDS011;27441;50.860;0.258;2023-02-13T01:15:52;0.00;;;0.00;;
41761;SDS011;27441;50.860;0.258;2023-02-13T01:18:18;0.00;;;0.00;;
41761;SDS011;27441;50.860;0.258;2023-02-13T01:20:45;0.00;;;0.00;;
41761;SDS011;27441;50.860;0.258;2023-02-13T01:23:20;0.00;;;0.00;;
41761;SDS011;27441;50.860;0.258;2023-02-13T01:25:46;0.00;;;0.00;;
41761;SDS011;27441;50.860;0.258;2023-02-13T01:28:12;0.00;;;0.00;;
41761;SDS011;27441;50.860;0.258;2023-02-13T01:30:39;0.00;;;0.00;;
41761;SDS011;27441;50.860;0.258;2023-02-13T01:33:05;0.00;;;0.00;;
41761;SDS011;27441;50.860;0.258;2023-02-13T01:35:31;0.00;;;0.00;;
41761;SDS011;27441;50.860;0.258;2023-02-13T01:37:57;0.00;;;0.00;;
41761;SDS011;27441;50.860;0.258;2023-02-13T01:40:23;0.00;;;0.00;;
41761;SDS011;27441;50.860;0.258;2023-02-13T01:42:53;0.00;;;0.00;;
41761;SDS011;27441;50.860;0.258;2023-02-13T01:47:59;0.00;;;0.00;;
41761;SDS011;27441;50.860;0.258;2023-02-13T01:50:33;0.00;;;0.00;;
41761;SDS011;27441;50.860;0.258;2023-02-13T01:53:03;0.00;;;0.00;;
41761;SDS011;27441;50.860;0.258;2023-02-13T01:55:31;0.00;;;0.00;;
41761;SDS011;27441;50.860;0.258;2023-02-13T01:58:03;0.00;;;0.00;;
41761;SDS011;27441;50.860;0.258;2023-02-13T02:00:32;0.00;;;0.00;;
41761;SDS011;27441;50.860;0.258;2023-02-13T02:03:01;0.00;;;0.00;;
41761;SDS011;27441;50.860;0.258;2023-02-13T02:05:30;0.00;;;0.00;;
41761;SDS011;27441;50.860;0.258;2023-02-13T02:07:57;0.00;;;0.00;;
41761;SDS011;27441;50.860;0.258;2023-02-13T02:10:24;0.00;;;0.00;;
41761;SDS011;27441;50.860;0.258;2023-02-13T02:15:20;0.00;;;0.00;;
41761;SDS011;27441;50.860;0.258;2023-02-13T02:17:46;0.00;;;0.00;;
41761;SDS011;27441;50.860;0.258;2023-02-13T02:20:23;0.00;;;0.00;;
41761;SDS011;27441;50.860;0.258;2023-02-13T02:43:50;0.00;;;0.00;;
41761;SDS011;27441;50.860;0.258;2023-02-13T02:48:55;0.00;;;0.00;;
41761;SDS011;27441;50.860;0.258;2023-02-13T02:51:45;0.00;;;0.00;;
41761;SDS011;27441;50.860;0.258;2023-02-13T02:54:26;0.00;;;0.00;;
41761;SDS011;27441;50.860;0.258;2023-02-13T02:57:14;0.00;;;0.00;;
41761;SDS011;27441;50.860;0.258;2023-02-13T02:59:41;0.00;;;0.00;;
41761;SDS011;27441;50.860;0.258;2023-02-13T03:02:31;0.00;;;0.00;;
41761;SDS011;27441;50.860;0.258;2023-02-13T03:05:21;0.00;;;0.00;;
41761;SDS011;27441;50.860;0.258;2023-02-13T03:08:08;0.82;;;0.82;;
41761;SDS011;27441;50.860;0.258;2023-02-13T03:10:35;0.00;;;0.00;;
41761;SDS011;27441;50.860;0.258;2023-02-13T03:13:39;0.00;;;0.00;;
41761;SDS011;27441;50.860;0.258;2023-02-13T03:16:09;0.00;;;0.00;;
41761;SDS011;27441;50.860;0.258;2023-02-13T03:18:55;2.33;;;2.17;;
41761;SDS011;27441;50.860;0.258;2023-02-13T03:21:47;0.00;;;0.00;;
41761;SDS011;27441;50.860;0.258;2023-02-13T03:27:07;0.70;;;0.70;;
41761;SDS011;27441;50.860;0.258;2023-02-13T03:32:30;38.53;;;17.10;;
41761;SDS011;27441;50.860;0.258;2023-02-13T03:38:04;0.00;;;0.00;;
41761;SDS011;27441;50.860;0.258;2023-02-13T03:40:35;0.00;;;0.00;;
41761;SDS011;27441;50.860;0.258;2023-02-13T03:43:04;0.00;;;0.00;;
41761;SDS011;27441;50.860;0.258;2023-02-13T03:45:34;0.00;;;0.00;;
41761;SDS011;27441;50.860;0.258;2023-02-13T03:48:17;68.65;;;23.85;;
41761;SDS011;27441;50.860;0.258;2023-02-13T03:51:03;0.00;;;0.00;;
41761;SDS011;27441;50.860;0.258;2023-02-13T03:53:32;0.40;;;0.40;;
41761;SDS011;27441;50.860;0.258;2023-02-13T03:55:59;0.00;;;0.00;;
41761;SDS011;27441;50.860;0.258;2023-02-13T03:58:45;0.00;;;0.00;;
41761;SDS011;27441;50.860;0.258;2023-02-13T04:01:33;0.00;;;0.00;;
41761;SDS011;27441;50.860;0.258;2023-02-13T04:04:08;34.67;;;16.27;;
41761;SDS011;27441;50.860;0.258;2023-02-13T04:06:37;0.00;;;0.00;;
41761;SDS011;27441;50.860;0.258;2023-02-13T04:09:05;0.00;;;0.00;;
41761;SDS011;27441;50.860;0.258;2023-02-13T04:13:58;7.93;;;5.70;;
41761;SDS011;27441;50.860;0.258;2023-02-13T04:16:32;13.15;;;6.63;;
41761;SDS011;27441;50.860;0.258;2023-02-13T04:19:00;0.00;;;0.00;;
41761;SDS011;27441;50.860;0.258;2023-02-13T04:21:26;24.10;;;22.00;;
41761;SDS011;27441;50.860;0.258;2023-02-13T04:23:52;0.03;;;0.03;;
41761;SDS011;27441;50.860;0.258;2023-02-13T04:26:20;0.00;;;0.00;;
41761;SDS011;27441;50.860;0.258;2023-02-13T04:28:46;0.00;;;0.00;;
41761;SDS011;27441;50.860;0.258;2023-02-13T04:31:12;0.00;;;0.00;;
41761;SDS011;27441;50.860;0.258;2023-02-13T04:33:39;20.63;;;12.32;;
41761;SDS011;27441;50.860;0.258;2023-02-13T04:36:05;0.90;;;0.90;;
41761;SDS011;27441;50.860;0.258;2023-02-13T04:38:31;11.70;;;10.55;;
41761;SDS011;27441;50.860;0.258;2023-02-13T04:40:57;40.45;;;36.05;;
41761;SDS011;27441;50.860;0.258;2023-02-13T04:43:23;0.00;;;0.00;;
41761;SDS011;27441;50.860;0.258;2023-02-13T04:45:49;3.50;;;3.20;;
41761;SDS011;27441;50.860;0.258;2023-02-13T04:48:16;23.20;;;14.40;;
41761;SDS011;27441;50.860;0.258;2023-02-13T04:50:42;0.00;;;0.00;;
41761;SDS011;27441;50.860;0.258;2023-02-13T04:58:00;0.00;;;0.00;;
41761;SDS011;27441;50.860;0.258;2023-02-13T05:00:28;17.27;;;15.73;;
41761;SDS011;27441;50.860;0.258;2023-02-13T05:02:59;24.70;;;15.50;;
41761;SDS011;27441;50.860;0.258;2023-02-13T05:07:51;0.00;;;0.00;;
41761;SDS011;27441;50.860;0.258;2023-02-13T05:10:17;0.10;;;0.10;;
41761;SDS011;27441;50.860;0.258;2023-02-13T05:12:43;0.20;;;0.20;;
41761;SDS011;27441;50.860;0.258;2023-02-13T05:17:35;9.23;;;8.45;;
41761;SDS011;27441;50.860;0.258;2023-02-13T05:20:01;0.10;;;0.10;;
41761;SDS011;27441;50.860;0.258;2023-02-13T05:22:27;0.00;;;0.00;;
41761;SDS011;27441;50.860;0.258;2023-02-13T05:25:12;8.60;;;5.88;;
41761;SDS011;27441;50.860;0.258;2023-02-13T05:30:04;0.32;;;0.32;;
41761;SDS011;27441;50.860;0.258;2023-02-13T05:32:31;6.85;;;6.15;;
41761;SDS011;27441;50.860;0.258;2023-02-13T05:37:23;0.00;;;0.00;;
41761;SDS011;27441;50.860;0.258;2023-02-13T05:44:41;4.63;;;3.17;;
41761;SDS011;27441;50.860;0.258;2023-02-13T05:49:33;2.42;;;2.05;;
41761;SDS011;27441;50.860;0.258;2023-02-13T05:51:59;0.60;;;0.60;;
41761;SDS011;27441;50.860;0.258;2023-02-13T06:09:01;0.00;;;0.00;;
41761;SDS011;27441;50.860;0.258;2023-02-13T06:11:28;0.00;;;0.00;;
41761;SDS011;27441;50.860;0.258;2023-02-13T06:18:46;0.00;;;0.00;;
41761;SDS011;27441;50.860;0.258;2023-02-13T06:21:12;2.17;;;0.90;;
41761;SDS011;27441;50.860;0.258;2023-02-13T06:23:38;4.70;;;4.38;;
41761;SDS011;27441;50.860;0.258;2023-02-13T06:26:05;7.43;;;6.75;;
41761;SDS011;27441;50.860;0.258;2023-02-13T06:30:58;0.00;;;0.00;;
41761;SDS011;27441;50.860;0.258;2023-02-13T06:33:24;0.00;;;0.00;;
41761;SDS011;27441;50.860;0.258;2023-02-13T06:40:45;10.20;;;9.27;;
41761;SDS011;27441;50.860;0.258;2023-02-13T06:43:12;4.00;;;3.65;;
41761;SDS011;27441;50.860;0.258;2023-02-13T06:45:38;0.00;;;0.00;;
41761;SDS011;27441;50.860;0.258;2023-02-13T06:50:31;0.00;;;0.00;;
41761;SDS011;27441;50.860;0.258;2023-02-13T07:00:16;0.65;;;0.63;;
41761;SDS011;27441;50.860;0.258;2023-02-13T07:07:35;0.10;;;0.00;;
41761;SDS011;27441;50.860;0.258;2023-02-13T07:12:28;0.00;;;0.00;;
41761;SDS011;27441;50.860;0.258;2023-02-13T07:24:38;0.00;;;0.00;;
41761;SDS011;27441;50.860;0.258;2023-02-13T07:27:04;0.00;;;0.00;;
41761;SDS011;27441;50.860;0.258;2023-02-13T07:31:56;0.00;;;0.00;;
41761;SDS011;27441;50.860;0.258;2023-02-13T07:34:23;0.00;;;0.00;;
41761;SDS011;27441;50.860;0.258;2023-02-13T07:36:49;0.00;;;0.00;;
41761;SDS011;27441;50.860;0.258;2023-02-13T07:41:41;0.00;;;0.00;;
41761;SDS011;27441;50.860;0.258;2023-02-13T07:44:07;0.00;;;0.00;;
41761;SDS011;27441;50.860;0.258;2023-02-13T07:46:34;0.00;;;0.00;;
41761;SDS011;27441;50.860;0.258;2023-02-13T07:49:00;0.00;;;0.00;;
41761;SDS011;27441;50.860;0.258;2023-02-13T07:51:26;0.00;;;0.00;;
41761;SDS011;27441;50.860;0.258;2023-02-13T07:53:53;0.60;;;0.60;;
41761;SDS011;27441;50.860;0.258;2023-02-13T07:56:20;0.00;;;0.00;;
41761;SDS011;27441;50.860;0.258;2023-02-13T07:58:46;10.48;;;3.88;;
41761;SDS011;27441;50.860;0.258;2023-02-13T08:01:13;5.55;;;3.38;;
41761;SDS011;27441;50.860;0.258;2023-02-13T08:03:39;79.80;;;30.35;;
41761;SDS011;27441;50.860;0.258;2023-02-13T08:06:06;0.00;;;0.00;;
41761;SDS011;27441;50.860;0.258;2023-02-13T08:08:32;0.00;;;0.00;;
41761;SDS011;27441;50.860;0.258;2023-02-13T08:11:06;0.00;;;0.00;;
41761;SDS011;27441;50.860;0.258;2023-02-13T08:18:43;0.00;;;0.00;;
41761;SDS011;27441;50.860;0.258;2023-02-13T08:21:09;0.10;;;0.10;;
41761;SDS011;27441;50.860;0.258;2023-02-13T08:23:35;4.55;;;3.90;;
41761;SDS011;27441;50.860;0.258;2023-02-13T08:26:01;2.90;;;1.20;;
41761;SDS011;27441;50.860;0.258;2023-02-13T08:28:28;34.75;;;29.90;;
41761;SDS011;27441;50.860;0.258;2023-02-13T08:33:20;0.00;;;0.00;;
41761;SDS011;27441;50.860;0.258;2023-02-13T08:35:46;0.08;;;0.08;;
41761;SDS011;27441;50.860;0.258;2023-02-13T08:38:13;0.50;;;0.50;;
41761;SDS011;27441;50.860;0.258;2023-02-13T08:40:39;3.90;;;1.60;;
41761;SDS011;27441;50.860;0.258;2023-02-13T08:43:05;9.75;;;4.70;;
41761;SDS011;27441;50.860;0.258;2023-02-13T08:45:32;1.15;;;1.15;;
41761;SDS011;27441;50.860;0.258;2023-02-13T08:47:59;6.18;;;5.18;;
41761;SDS011;27441;50.860;0.258;2023-02-13T08:50:25;0.80;;;0.80;;
41761;SDS011;27441;50.860;0.258;2023-02-13T08:52:52;0.00;;;0.00;;
41761;SDS011;27441;50.860;0.258;2023-02-13T08:55:18;5.50;;;2.00;;
41761;SDS011;27441;50.860;0.258;2023-02-13T08:57:44;0.00;;;0.00;;
41761;SDS011;27441;50.860;0.258;2023-02-13T09:05:03;12.98;;;6.28;;
41761;SDS011;27441;50.860;0.258;2023-02-13T09:07:29;24.58;;;9.50;;
41761;SDS011;27441;50.860;0.258;2023-02-13T09:09:55;0.50;;;0.43;;
41761;SDS011;27441;50.860;0.258;2023-02-13T09:12:21;3.80;;;3.20;;
41761;SDS011;27441;50.860;0.258;2023-02-13T09:14:47;0.00;;;0.00;;
41761;SDS011;27441;50.860;0.258;2023-02-13T09:17:13;56.15;;;25.00;;
41761;SDS011;27441;50.860;0.258;2023-02-13T09:19:42;0.00;;;0.00;;
41761;SDS011;27441;50.860;0.258;2023-02-13T09:22:09;0.00;;;0.00;;
41761;SDS011;27441;50.860;0.258;2023-02-13T09:24:35;0.00;;;0.00;;
41761;SDS011;27441;50.860;0.258;2023-02-13T09:27:03;0.00;;;0.00;;
41761;SDS011;27441;50.860;0.258;2023-02-13T09:29:29;0.00;;;0.00;;
41761;SDS011;27441;50.860;0.258;2023-02-13T09:31:57;0.00;;;0.00;;
41761;SDS011;27441;50.860;0.258;2023-02-13T09:34:24;0.00;;;0.00;;
41761;SDS011;27441;50.860;0.258;2023-02-13T09:36:51;50.22;;;33.85;;
41761;SDS011;27441;50.860;0.258;2023-02-13T09:39:17;45.65;;;29.25;;
41761;SDS011;27441;50.860;0.258;2023-02-13T09:41:44;107.43;;;38.45;;
41761;SDS011;27441;50.860;0.258;2023-02-13T09:44:13;104.70;;;44.80;;
41761;SDS011;27441;50.860;0.258;2023-02-13T09:54:15;0.00;;;0.00;;
41761;SDS011;27441;50.860;0.258;2023-02-13T09:57:00;0.00;;;0.00;;
41761;SDS011;27441;50.860;0.258;2023-02-13T10:10:21;253.45;;;101.05;;
41761;SDS011;27441;50.860;0.258;2023-02-13T10:12:56;230.25;;;73.05;;
41761;SDS011;27441;50.860;0.258;2023-02-13T10:17:58;432.58;;;182.57;;
41761;SDS011;27441;50.860;0.258;2023-02-13T10:22:51;298.63;;;87.90;;
41761;SDS011;27441;50.860;0.258;2023-02-13T10:25:20;321.17;;;96.60;;
41761;SDS011;27441;50.860;0.258;2023-02-13T10:28:03;313.77;;;98.57;;
41761;SDS011;27441;50.860;0.258;2023-02-13T10:30:31;317.10;;;86.77;;
41761;SDS011;27441;50.860;0.258;2023-02-13T10:48:13;488.95;;;108.35;;
41761;SDS011;27441;50.860;0.258;2023-02-13T10:50:50;510.40;;;109.72;;
41761;SDS011;27441;50.860;0.258;2023-02-13T10:53:23;42.73;;;21.07;;
41761;SDS011;27441;50.860;0.258;2023-02-13T10:56:00;599.20;;;220.88;;
41761;SDS011;27441;50.860;0.258;2023-02-13T10:58:42;522.13;;;139.93;;
41761;SDS011;27441;50.860;0.258;2023-02-13T11:01:34;398.92;;;92.55;;
41761;SDS011;27441;50.860;0.258;2023-02-13T11:06:24;406.17;;;115.37;;
41761;SDS011;27441;50.860;0.258;2023-02-13T11:08:50;476.27;;;126.25;;
41761;SDS011;27441;50.860;0.258;2023-02-13T11:11:33;441.85;;;106.85;;
41761;SDS011;27441;50.860;0.258;2023-02-13T11:14:33;475.92;;;116.90;;
41761;SDS011;27441;50.860;0.258;2023-02-13T11:21:44;303.52;;;88.63;;
41761;SDS011;27441;50.860;0.258;2023-02-13T11:26:38;393.52;;;93.65;;
41761;SDS011;27441;50.860;0.258;2023-02-13T11:29:27;423.35;;;97.88;;
41761;SDS011;27441;50.860;0.258;2023-02-13T11:34:26;166.02;;;63.13;;
41761;SDS011;27441;50.860;0.258;2023-02-13T11:36:54;400.27;;;102.68;;
41761;SDS011;27441;50.860;0.258;2023-02-13T11:39:32;273.55;;;111.95;;
41761;SDS011;27441;50.860;0.258;2023-02-13T11:46:55;354.65;;;89.18;;
41761;SDS011;27441;50.860;0.258;2023-02-13T11:54:21;439.60;;;98.65;;
41761;SDS011;27441;50.860;0.258;2023-02-13T11:56:49;6.90;;;6.50;;
41761;SDS011;27441;50.860;0.258;2023-02-13T11:59:21;341.10;;;90.20;;
41761;SDS011;27441;50.860;0.258;2023-02-13T12:01:51;396.70;;;99.97;;
41761;SDS011;27441;50.860;0.258;2023-02-13T12:04:26;353.33;;;111.82;;
41761;SDS011;27441;50.860;0.258;2023-02-13T12:06:59;252.80;;;69.72;;
41761;SDS011;27441;50.860;0.258;2023-02-13T12:09:26;402.73;;;95.95;;
41761;SDS011;27441;50.860;0.258;2023-02-13T12:11:54;413.15;;;97.10;;
41761;SDS011;27441;50.860;0.258;2023-02-13T12:16:59;447.27;;;176.52;;
41761;SDS011;27441;50.860;0.258;2023-02-13T12:19:32;443.17;;;156.80;;
41761;SDS011;27441;50.860;0.258;2023-02-13T12:22:11;497.67;;;245.02;;
41761;SDS011;27441;50.860;0.258;2023-02-13T12:25:24;411.45;;;126.15;;
41761;SDS011;27441;50.860;0.258;2023-02-13T12:27:51;422.50;;;119.88;;
41761;SDS011;27441;50.860;0.258;2023-02-13T12:53:20;421.02;;;100.80;;
41761;SDS011;27441;50.860;0.258;2023-02-13T13:03:25;350.35;;;89.05;;
41761;SDS011;27441;50.860;0.258;2023-02-13T13:14:03;339.85;;;137.32;;
41761;SDS011;27441;50.860;0.258;2023-02-13T13:16:35;228.02;;;74.75;;
41761;SDS011;27441;50.860;0.258;2023-02-13T13:36:44;85.60;;;40.92;;
41761;SDS011;27441;50.860;0.258;2023-02-13T13:39:18;166.02;;;60.28;;
41761;SDS011;27441;50.860;0.258;2023-02-13T13:42:02;219.82;;;81.07;;
41761;SDS011;27441;50.860;0.258;2023-02-13T13:44:39;286.05;;;92.15;;
41761;SDS011;27441;50.860;0.258;2023-02-13T13:49:49;311.83;;;102.75;;
41761;SDS011;27441;50.860;0.258;2023-02-13T13:54:46;257.92;;;84.80;;
41761;SDS011;27441;50.860;0.258;2023-02-13T13:57:16;450.08;;;197.80;;
41761;SDS011;27441;50.860;0.258;2023-02-13T14:05:09;346.02;;;115.75;;
41761;SDS011;27441;50.860;0.258;2023-02-13T14:09:59;352.55;;;93.55;;
41761;SDS011;27441;50.860;0.258;2023-02-13T14:14:55;156.75;;;38.20;;
41761;SDS011;27441;50.860;0.258;2023-02-13T14:19:50;199.30;;;81.68;;
41761;SDS011;27441;50.860;0.258;2023-02-13T14:22:30;125.78;;;58.80;;
41761;SDS011;27441;50.860;0.258;2023-02-13T14:32:17;38.20;;;34.20;;
41761;SDS011;27441;50.860;0.258;2023-02-13T14:34:49;79.00;;;34.60;;
41761;SDS011;27441;50.860;0.258;2023-02-13T14:37:18;0.00;;;0.00;;
41761;SDS011;27441;50.860;0.258;2023-02-13T14:42:33;188.55;;;69.20;;
41761;SDS011;27441;50.860;0.258;2023-02-13T14:45:00;291.35;;;108.68;;
41761;SDS011;27441;50.860;0.258;2023-02-13T14:47:32;0.00;;;0.00;;
41761;SDS011;27441;50.860;0.258;2023-02-13T14:50:00;0.00;;;0.00;;
41761;SDS011;27441;50.860;0.258;2023-02-13T14:52:33;248.48;;;142.55;;
41761;SDS011;27441;50.860;0.258;2023-02-13T14:57:30;280.65;;;81.85;;
41761;SDS011;27441;50.860;0.258;2023-02-13T15:02:24;79.53;;;38.43;;
41761;SDS011;27441;50.860;0.258;2023-02-13T15:05:06;199.37;;;80.83;;
41761;SDS011;27441;50.860;0.258;2023-02-13T15:07:36;288.02;;;124.30;;
41761;SDS011;27441;50.860;0.258;2023-02-13T15:12:38;445.88;;;224.20;;
41761;SDS011;27441;50.860;0.258;2023-02-13T15:15:29;583.60;;;321.38;;
41761;SDS011;27441;50.860;0.258;2023-02-13T15:17:57;12.00;;;11.00;;
41761;SDS011;27441;50.860;0.258;2023-02-13T15:20:32;189.47;;;87.47;;
41761;SDS011;27441;50.860;0.258;2023-02-13T15:22:58;213.70;;;72.93;;
41761;SDS011;27441;50.860;0.258;2023-02-13T15:27:51;192.32;;;72.25;;
41761;SDS011;27441;50.860;0.258;2023-02-13T15:30:20;186.10;;;71.40;;
41761;SDS011;27441;50.860;0.258;2023-02-13T15:32:54;21.63;;;10.47;;
41761;SDS011;27441;50.860;0.258;2023-02-13T15:42:39;0.30;;;0.30;;
41761;SDS011;27441;50.860;0.258;2023-02-13T15:49:58;15.40;;;7.75;;
41761;SDS011;27441;50.860;0.258;2023-02-13T16:02:14;12.40;;;9.90;;
41761;SDS011;27441;50.860;0.258;2023-02-13T16:07:10;0.00;;;0.00;;
41761;SDS011;27441;50.860;0.258;2023-02-13T16:09:37;26.83;;;23.73;;
41761;SDS011;27441;50.860;0.258;2023-02-13T16:14:42;0.00;;;0.00;;
41761;SDS011;27441;50.860;0.258;2023-02-13T16:34:27;6.80;;;6.30;;
41761;SDS011;27441;50.860;0.258;2023-02-13T16:36:54;2.00;;;1.60;;
41761;SDS011;27441;50.860;0.258;2023-02-13T16:39:28;0.00;;;0.00;;
41761;SDS011;27441;50.860;0.258;2023-02-13T16:46:59;13.20;;;9.15;;
41761;SDS011;27441;50.860;0.258;2023-02-13T16:51:56;6.18;;;5.28;;
41761;SDS011;27441;50.860;0.258;2023-02-13T16:56:51;0.30;;;0.30;;
41761;SDS011;27441;50.860;0.258;2023-02-13T16:59:23;0.00;;;0.00;;
41761;SDS011;27441;50.860;0.258;2023-02-13T17:10:09;2.30;;;2.10;;
41761;SDS011;27441;50.860;0.258;2023-02-13T17:15:09;5.80;;;5.30;;
41761;SDS011;27441;50.860;0.258;2023-02-13T17:17:37;13.10;;;11.70;;
41761;SDS011;27441;50.860;0.258;2023-02-13T17:27:21;20.17;;;18.38;;
41761;SDS011;27441;50.860;0.258;2023-02-13T17:39:31;0.00;;;0.00;;
41761;SDS011;27441;50.860;0.258;2023-02-13T17:46:50;18.40;;;15.90;;
41761;SDS011;27441;50.860;0.258;2023-02-13T17:49:16;0.70;;;0.70;;
41761;SDS011;27441;50.860;0.258;2023-02-13T17:54:09;2.90;;;2.20;;
41761;SDS011;27441;50.860;0.258;2023-02-13T17:56:37;1.10;;;1.00;;
41761;SDS011;27441;50.860;0.258;2023-02-13T18:06:21;5.20;;;2.87;;
41761;SDS011;27441;50.860;0.258;2023-02-13T18:08:47;0.00;;;0.00;;
41761;SDS011;27441;50.860;0.258;2023-02-13T18:11:14;0.10;;;0.10;;
41761;SDS011;27441;50.860;0.258;2023-02-13T18:16:12;0.00;;;0.00;;
41761;SDS011;27441;50.860;0.258;2023-02-13T18:21:04;0.00;;;0.00;;
41761;SDS011;27441;50.860;0.258;2023-02-13T18:30:48;0.00;;;0.00;;
41761;SDS011;27441;50.860;0.258;2023-02-13T18:50:17;0.00;;;0.00;;
41761;SDS011;27441;50.860;0.258;2023-02-13T18:52:43;0.00;;;0.00;;
41761;SDS011;27441;50.860;0.258;2023-02-13T18:55:13;24.33;;;22.17;;
41761;SDS011;27441;50.860;0.258;2023-02-13T19:14:44;0.00;;;0.00;;
41761;SDS011;27441;50.860;0.258;2023-02-13T19:19:37;0.15;;;0.15;;
41761;SDS011;27441;50.860;0.258;2023-02-13T19:22:03;0.00;;;0.00;;
41761;SDS011;27441;50.860;0.258;2023-02-13T19:24:30;0.20;;;0.20;;
41761;SDS011;27441;50.860;0.258;2023-02-13T19:56:10;0.00;;;0.00;;
41761;SDS011;27441;50.860;0.258;2023-02-13T19:58:37;0.43;;;0.43;;
41761;SDS011;27441;50.860;0.258;2023-02-13T20:20:31;0.00;;;0.00;;
41761;SDS011;27441;50.860;0.258;2023-02-13T20:22:57;6.40;;;5.90;;
41761;SDS011;27441;50.860;0.258;2023-02-13T20:25:23;3.90;;;2.40;;
41761;SDS011;27441;50.860;0.258;2023-02-13T20:30:18;0.00;;;0.00;;
41761;SDS011;27441;50.860;0.258;2023-02-13T20:32:44;5.40;;;2.88;;
41761;SDS011;27441;50.860;0.258;2023-02-13T20:37:37;0.00;;;0.00;;
41761;SDS011;27441;50.860;0.258;2023-02-13T21:04:23;25.33;;;15.07;;
41761;SDS011;27441;50.860;0.258;2023-02-13T21:06:49;3.92;;;2.35;;
41761;SDS011;27441;50.860;0.258;2023-02-13T21:11:42;0.10;;;0.10;;
41761;SDS011;27441;50.860;0.258;2023-02-13T21:16:35;2.20;;;2.10;;
41761;SDS011;27441;50.860;0.258;2023-02-13T21:21:29;0.00;;;0.00;;
41761;SDS011;27441;50.860;0.258;2023-02-13T21:43:24;0.00;;;0.00;;
41761;SDS011;27441;50.860;0.258;2023-02-13T21:48:16;3.88;;;2.58;;
41761;SDS011;27441;50.860;0.258;2023-02-13T21:50:42;1.40;;;1.30;;
41761;SDS011;27441;50.860;0.258;2023-02-13T21:53:08;0.00;;;0.00;;
41761;SDS011;27441;50.860;0.258;2023-02-13T22:07:44;0.00;;;0.00;;
41761;SDS011;27441;50.860;0.258;2023-02-13T22:20:13;0.00;;;0.00;;
41761;SDS011;27441;50.860;0.258;2023-02-13T22:25:05;0.00;;;0.00;;
41761;SDS011;27441;50.860;0.258;2023-02-13T22:37:16;4.60;;;2.70;;
41761;SDS011;27441;50.860;0.258;2023-02-13T22:39:42;1.40;;;1.00;;
41761;SDS011;27441;50.860;0.258;2023-02-13T22:42:08;0.00;;;0.00;;
41761;SDS011;27441;50.860;0.258;2023-02-13T23:31:27;1.60;;;1.10;;
41761;SDS011;27441;50.860;0.258;2023-02-13T23:33:53;37.55;;;28.13;;
41761;SDS011;27441;50.860;0.258;2023-02-13T23:36:19;0.00;;;0.00;;
41761;SDS011;27441;50.860;0.258;2023-02-13T23:53:22;1.95;;;1.80;;
41761;SDS011;27441;50.860;0.258;2023-02-13T23:58:14;0.00;;;0.00;;
